createdAt,value
2017-07-15T00:02:23.681Z,101288.38
2017-07-15T00:04:55.952Z,101292.53
2017-07-15T00:07:28.360Z,101286.19
2017-07-15T00:10:00.937Z,101294.10
2017-07-15T00:12:33.285Z,101285.36
2017-07-15T00:15:05.820Z,101289.97
2017-07-15T00:17:38.369Z,101285.67
2017-07-15T00:20:10.740Z,101295.38
2017-07-15T00:22:43.106Z,101290.39
2017-07-15T00:25:15.566Z,101291.13
2017-07-15T00:27:47.922Z,101295.20
2017-07-15T00:30:20.497Z,101283.80
2017-07-15T00:32:52.760Z,101286.69
2017-07-15T00:35:25.213Z,101283.03
2017-07-15T00:37:57.910Z,101285.72
2017-07-15T00:40:30.122Z,101284.35
2017-07-15T00:43:02.436Z,101285.02
2017-07-15T00:45:34.926Z,101280.08
2017-07-15T00:48:07.340Z,101287.73
2017-07-15T00:50:39.868Z,101293.45
2017-07-15T00:53:12.286Z,101295.95
2017-07-15T00:55:44.920Z,101294.30
2017-07-15T00:58:17.214Z,101296.47
2017-07-15T01:00:49.634Z,101300.92
2017-07-15T01:03:21.886Z,101300.44
2017-07-15T01:05:54.384Z,101300.00
2017-07-15T01:08:33.809Z,101298.86
2017-07-15T01:11:06.387Z,101304.45
2017-07-15T01:13:38.861Z,101300.14
2017-07-15T01:16:11.129Z,101296.55
2017-07-15T01:18:43.682Z,101300.03
2017-07-15T01:21:16.143Z,101291.81
2017-07-15T01:23:48.557Z,101299.64
2017-07-15T01:26:21.010Z,101302.86
2017-07-15T01:28:53.302Z,101306.42
2017-07-15T01:31:25.669Z,101304.75
2017-07-15T01:33:58.181Z,101313.78
2017-07-15T01:36:30.611Z,101302.27
2017-07-15T01:39:02.953Z,101308.97
2017-07-15T01:41:35.352Z,101311.02
2017-07-15T01:44:07.617Z,101309.78
2017-07-15T01:46:40.107Z,101310.33
2017-07-15T01:49:12.540Z,101305.66
2017-07-15T01:51:44.947Z,101307.56
2017-07-15T01:54:17.341Z,101306.79
2017-07-15T01:56:49.813Z,101305.50
2017-07-15T01:59:22.252Z,101302.95
2017-07-15T02:01:54.621Z,101307.45
2017-07-15T02:04:27.002Z,101311.89
2017-07-15T02:07:00.392Z,101314.25
2017-07-15T02:09:32.853Z,101308.09
2017-07-15T02:12:05.261Z,101308.44
2017-07-15T02:14:37.641Z,101317.72
2017-07-15T02:17:10.113Z,101313.50
2017-07-15T02:19:42.490Z,101315.45
2017-07-15T02:22:14.881Z,101316.58
2017-07-15T02:24:47.347Z,101323.89
2017-07-15T02:27:19.932Z,101315.36
2017-07-15T02:29:52.281Z,101322.05
2017-07-15T02:32:24.794Z,101327.27
2017-07-15T02:34:57.328Z,101323.94
2017-07-15T02:37:29.848Z,101339.17
2017-07-15T02:40:02.385Z,101336.90
2017-07-15T02:42:34.876Z,101334.73
2017-07-15T02:45:07.341Z,101342.39
2017-07-15T02:47:39.888Z,101342.01
2017-07-15T02:50:12.252Z,101343.38
2017-07-15T02:52:44.761Z,101345.03
2017-07-15T02:55:17.153Z,101346.86
2017-07-15T02:57:49.758Z,101354.75
2017-07-15T03:00:22.109Z,101352.20
2017-07-15T03:02:54.649Z,101352.88
2017-07-15T03:05:26.961Z,101351.78
2017-07-15T03:07:59.369Z,101356.63
2017-07-15T03:10:31.717Z,101354.67
2017-07-15T03:13:04.188Z,101364.96
2017-07-15T03:15:36.532Z,101366.72
2017-07-15T03:18:08.929Z,101364.00
2017-07-15T03:20:41.402Z,101361.98
2017-07-15T03:23:13.777Z,101369.51
2017-07-15T03:25:46.236Z,101375.36
2017-07-15T03:28:18.689Z,101378.06
2017-07-15T03:30:50.890Z,101377.48
2017-07-15T03:33:23.290Z,101377.62
2017-07-15T03:35:55.621Z,101386.66
2017-07-15T03:38:28.126Z,101383.26
2017-07-15T03:41:00.547Z,101383.35
2017-07-15T03:43:32.949Z,101390.43
2017-07-15T03:46:05.417Z,101389.78
2017-07-15T03:48:37.917Z,101403.45
2017-07-15T03:51:10.214Z,101395.33
2017-07-15T03:53:42.766Z,101395.02
2017-07-15T03:56:15.024Z,101403.63
2017-07-15T03:58:47.904Z,101415.39
2017-07-15T04:01:19.941Z,101407.97
2017-07-15T04:03:52.365Z,101417.94
2017-07-15T04:06:24.614Z,101419.05
2017-07-15T04:08:57.125Z,101424.87
2017-07-15T04:11:29.452Z,101424.70
2017-07-15T04:14:01.937Z,101425.92
2017-07-15T04:16:34.414Z,101432.91
2017-07-15T04:19:06.913Z,101430.42
2017-07-15T04:21:39.392Z,101422.20
2017-07-15T04:24:11.852Z,101432.57
2017-07-15T04:26:44.284Z,101431.13
2017-07-15T04:29:16.825Z,101437.94
2017-07-15T04:31:49.226Z,101445.17
2017-07-15T04:34:21.774Z,101449.71
2017-07-15T04:36:54.239Z,101449.16
2017-07-15T04:39:27.538Z,101450.45
2017-07-15T04:41:59.946Z,101446.97
2017-07-15T04:44:32.261Z,101450.97
2017-07-15T04:47:04.679Z,101450.83
2017-07-15T04:49:37.397Z,101456.16
2017-07-15T04:52:09.501Z,101466.88
2017-07-15T04:54:42.000Z,101467.95
2017-07-15T04:57:14.385Z,101460.77
2017-07-15T04:59:47.862Z,101461.32
2017-07-15T05:02:20.297Z,101462.80
2017-07-15T05:04:52.833Z,101466.88
2017-07-15T05:07:25.156Z,101472.30
2017-07-15T05:09:57.633Z,101476.38
2017-07-15T05:12:30.031Z,101472.41
2017-07-15T05:15:02.491Z,101466.54
2017-07-15T05:17:34.912Z,101464.33
2017-07-15T05:20:07.378Z,101466.66
2017-07-15T05:22:39.756Z,101463.75
2017-07-15T05:25:12.338Z,101466.17
2017-07-15T05:27:44.841Z,101465.56
2017-07-15T05:30:17.082Z,101470.13
2017-07-15T05:32:49.465Z,101467.74
2017-07-15T05:35:22.021Z,101478.81
2017-07-15T05:37:54.402Z,101474.55
2017-07-15T05:40:26.901Z,101476.27
2017-07-15T05:42:59.235Z,101480.36
2017-07-15T05:45:31.641Z,101483.77
2017-07-15T05:48:04.093Z,101489.03
2017-07-15T05:50:36.693Z,101480.91
2017-07-15T05:53:09.136Z,101493.94
2017-07-15T05:55:41.471Z,101495.50
2017-07-15T05:58:13.850Z,101496.64
2017-07-15T06:00:46.273Z,101492.85
2017-07-15T06:03:18.681Z,101488.74
2017-07-15T06:05:51.020Z,101491.48
2017-07-15T06:08:23.478Z,101486.08
2017-07-15T06:10:55.913Z,101492.76
2017-07-15T06:13:28.426Z,101508.98
2017-07-15T06:16:01.013Z,101507.41
2017-07-15T06:18:33.459Z,101515.45
2017-07-15T06:21:05.877Z,101518.27
2017-07-15T06:23:38.317Z,101517.60
2017-07-15T06:26:10.611Z,101525.41
2017-07-15T06:28:43.135Z,101527.27
2017-07-15T06:31:15.463Z,101524.23
2017-07-15T06:33:48.139Z,101518.80
2017-07-15T06:36:20.303Z,101514.75
2017-07-15T06:38:52.861Z,101514.24
2017-07-15T06:41:25.235Z,101517.48
2017-07-15T06:43:57.458Z,101519.59
2017-07-15T06:46:29.818Z,101529.15
2017-07-15T06:49:02.044Z,101536.20
2017-07-15T06:51:34.521Z,101540.38
2017-07-15T06:54:07.218Z,101543.91
2017-07-15T06:56:39.595Z,101547.36
2017-07-15T06:59:11.954Z,101549.53
2017-07-15T07:01:44.421Z,101548.84
2017-07-15T07:04:16.926Z,101547.34
2017-07-15T07:06:49.319Z,101547.72
2017-07-15T07:09:21.679Z,101546.80
2017-07-15T07:11:54.051Z,101560.32
2017-07-15T07:14:26.503Z,101566.22
2017-07-15T07:16:59.100Z,101564.02
2017-07-15T07:19:31.549Z,101566.19
2017-07-15T07:22:03.816Z,101565.62
2017-07-15T07:24:36.072Z,101554.85
2017-07-15T07:27:08.283Z,101561.41
2017-07-15T07:29:40.752Z,101555.36
2017-07-15T07:32:13.086Z,101560.81
2017-07-15T07:34:45.290Z,101564.80
2017-07-15T07:37:17.764Z,101572.65
2017-07-15T07:39:49.993Z,101571.15
2017-07-15T07:42:22.412Z,101586.16
2017-07-15T07:44:54.952Z,101594.78
2017-07-15T07:47:27.457Z,101591.90
2017-07-15T07:49:59.786Z,101595.30
2017-07-15T07:52:32.097Z,101596.31
2017-07-15T07:55:04.393Z,101599.22
2017-07-15T07:57:36.797Z,101611.86
2017-07-15T08:00:09.348Z,101608.56
2017-07-15T08:02:41.758Z,101617.22
2017-07-15T08:05:14.185Z,101617.44
2017-07-15T08:07:46.553Z,101612.07
2017-07-15T08:10:19.030Z,101615.94
2017-07-15T08:12:51.257Z,101623.73
2017-07-15T08:15:23.628Z,101628.66
2017-07-15T08:17:56.037Z,101630.98
2017-07-15T08:20:28.346Z,101629.41
2017-07-15T08:23:00.778Z,101632.23
2017-07-15T08:25:33.014Z,101628.80
2017-07-15T08:28:05.270Z,101636.77
2017-07-15T08:30:37.509Z,101629.98
2017-07-15T08:33:09.901Z,101635.51
2017-07-15T08:35:42.143Z,101640.25
2017-07-15T08:38:14.675Z,101637.69
2017-07-15T08:40:47.013Z,101633.27
2017-07-15T08:43:19.426Z,101637.95
2017-07-15T08:45:51.860Z,101639.78
2017-07-15T08:48:24.245Z,101645.39
2017-07-15T08:50:56.514Z,101632.84
2017-07-15T08:53:28.874Z,101634.86
2017-07-15T08:56:01.017Z,101636.06
2017-07-15T08:58:33.417Z,101634.82
2017-07-15T09:01:05.683Z,101640.55
2017-07-15T09:03:38.075Z,101641.69
2017-07-15T09:06:10.417Z,101639.53
2017-07-15T09:08:42.722Z,101648.34
2017-07-15T09:11:15.039Z,101657.08
2017-07-15T09:13:47.483Z,101648.41
2017-07-15T09:16:19.813Z,101650.39
2017-07-15T09:18:52.154Z,101648.45
2017-07-15T09:21:24.467Z,101653.31
2017-07-15T09:23:56.728Z,101651.56
2017-07-15T09:26:28.993Z,101651.06
2017-07-15T09:29:01.476Z,101647.76
2017-07-15T09:31:33.745Z,101651.97
2017-07-15T09:34:06.235Z,101644.95
2017-07-15T09:36:38.549Z,101651.42
2017-07-15T09:39:10.929Z,101649.61
2017-07-15T09:41:43.343Z,101645.03
2017-07-15T09:44:15.428Z,101641.22
2017-07-15T09:46:47.718Z,101646.66
2017-07-15T09:49:19.986Z,101641.18
2017-07-15T09:51:52.301Z,101646.75
2017-07-15T09:54:24.751Z,101646.53
2017-07-15T09:56:56.913Z,101655.97
2017-07-15T09:59:29.213Z,101666.04
2017-07-15T10:02:01.460Z,101672.27
2017-07-15T10:04:33.797Z,101678.18
2017-07-15T10:07:06.018Z,101679.70
2017-07-15T10:09:38.196Z,101675.81
2017-07-15T10:12:10.369Z,101673.61
2017-07-15T10:14:42.552Z,101675.25
2017-07-15T10:17:14.937Z,101672.86
2017-07-15T10:19:47.417Z,101670.61
2017-07-15T10:22:19.693Z,101664.13
2017-07-15T10:24:52.081Z,101667.70
2017-07-15T10:27:25.222Z,101668.59
2017-07-15T10:29:57.945Z,101673.56
2017-07-15T10:32:30.246Z,101684.19
2017-07-15T10:35:02.598Z,101687.44
2017-07-15T10:37:34.865Z,101688.20
2017-07-15T10:40:07.319Z,101686.42
2017-07-15T10:42:39.785Z,101683.60
2017-07-15T10:45:12.081Z,101677.55
2017-07-15T10:47:44.377Z,101682.03
2017-07-15T10:50:17.598Z,101683.45
2017-07-15T10:52:50.089Z,101676.73
2017-07-15T10:55:22.413Z,101678.83
2017-07-15T10:57:54.694Z,101682.94
2017-07-15T11:00:27.100Z,101676.32
2017-07-15T11:02:59.446Z,101682.36
2017-07-15T11:05:31.790Z,101679.45
2017-07-15T11:08:04.083Z,101680.55
2017-07-15T11:10:36.437Z,101678.99
2017-07-15T11:13:08.714Z,101684.69
2017-07-15T11:15:41.110Z,101679.81
2017-07-15T11:18:13.461Z,101682.91
2017-07-15T11:20:45.825Z,101673.83
2017-07-15T11:23:18.072Z,101683.98
2017-07-15T11:25:50.459Z,101685.77
2017-07-15T11:28:22.854Z,101682.78
2017-07-15T11:30:55.120Z,101694.16
2017-07-15T11:33:27.473Z,101700.06
2017-07-15T11:35:59.874Z,101704.20
2017-07-15T11:38:32.128Z,101702.92
2017-07-15T11:41:04.499Z,101708.48
2017-07-15T11:43:36.871Z,101706.22
2017-07-15T11:46:09.160Z,101706.53
2017-07-15T11:48:41.511Z,101713.22
2017-07-15T11:51:14.129Z,101712.08
2017-07-15T11:53:46.433Z,101711.03
2017-07-15T11:56:18.745Z,101705.56
2017-07-15T11:58:50.994Z,101706.84
2017-07-15T12:01:23.390Z,101716.52
2017-07-15T12:03:55.855Z,101720.00
2017-07-15T12:06:28.133Z,101720.09
2017-07-15T12:09:00.501Z,101716.81
2017-07-15T12:11:33.042Z,101723.05
2017-07-15T12:14:05.353Z,101716.60
2017-07-15T12:16:38.637Z,101714.18
2017-07-15T12:19:11.124Z,101714.34
2017-07-15T12:21:43.572Z,101709.70
2017-07-15T12:24:15.886Z,101705.47
2017-07-15T12:26:48.165Z,101717.31
2017-07-15T12:29:20.528Z,101712.89
2017-07-15T12:31:52.803Z,101709.94
2017-07-15T12:34:25.010Z,101714.47
2017-07-15T12:36:57.366Z,101713.98
2017-07-15T12:39:29.682Z,101708.58
2017-07-15T12:42:02.060Z,101714.55
2017-07-15T12:44:34.442Z,101717.16
2017-07-15T12:47:06.845Z,101715.59
2017-07-15T12:49:39.190Z,101723.06
2017-07-15T12:52:11.581Z,101721.30
2017-07-15T12:54:43.786Z,101722.98
2017-07-15T12:57:16.975Z,101726.05
2017-07-15T12:59:49.681Z,101724.58
2017-07-15T13:02:21.825Z,101720.31
2017-07-15T13:04:54.137Z,101715.55
2017-07-15T13:07:26.600Z,101709.28
2017-07-15T13:09:58.910Z,101713.45
2017-07-15T13:12:31.382Z,101718.08
2017-07-15T13:15:03.729Z,101713.02
2017-07-15T13:17:37.077Z,101716.64
2017-07-15T13:20:09.522Z,101716.73
2017-07-15T13:22:42.022Z,101722.97
2017-07-15T13:25:14.267Z,101728.34
2017-07-15T13:27:46.773Z,101719.00
2017-07-15T13:30:19.110Z,101722.84
2017-07-15T13:32:51.518Z,101722.95
2017-07-15T13:35:23.837Z,101726.20
2017-07-15T13:37:56.265Z,101725.70
2017-07-15T13:40:28.613Z,101728.20
2017-07-15T13:43:01.149Z,101726.88
2017-07-15T13:45:33.557Z,101725.70
2017-07-15T13:48:06.027Z,101735.64
2017-07-15T13:50:38.389Z,101738.71
2017-07-15T13:53:10.869Z,101736.83
2017-07-15T13:55:43.137Z,101735.63
2017-07-15T13:58:15.485Z,101731.28
2017-07-15T14:00:47.759Z,101730.89
2017-07-15T14:03:20.185Z,101722.78
2017-07-15T14:05:52.601Z,101726.80
2017-07-15T14:08:24.874Z,101727.06
2017-07-15T14:10:57.157Z,101723.25
2017-07-15T14:13:29.589Z,101727.02
2017-07-15T14:16:01.861Z,101724.84
2017-07-15T14:18:34.203Z,101730.78
2017-07-15T14:21:06.564Z,101732.13
2017-07-15T14:23:39.155Z,101724.59
2017-07-15T14:26:11.489Z,101725.55
2017-07-15T14:28:43.921Z,101727.62
2017-07-15T14:31:16.262Z,101727.90
2017-07-15T14:33:48.583Z,101724.70
2017-07-15T14:36:20.966Z,101717.84
2017-07-15T14:38:53.284Z,101724.45
2017-07-15T14:41:25.711Z,101723.79
2017-07-15T14:43:58.021Z,101720.23
2017-07-15T14:46:30.343Z,101719.09
2017-07-15T14:49:02.756Z,101715.14
2017-07-15T14:51:35.149Z,101719.50
2017-07-15T14:54:07.589Z,101723.31
2017-07-15T14:56:39.989Z,101715.16
2017-07-15T14:59:12.205Z,101716.36
2017-07-15T15:01:44.428Z,101720.44
2017-07-15T15:04:17.829Z,101712.95
2017-07-15T15:06:50.228Z,101709.97
2017-07-15T15:09:22.612Z,101720.82
2017-07-15T15:11:55.042Z,101716.70
2017-07-15T15:14:27.275Z,101723.54
2017-07-15T15:17:00.224Z,101717.09
2017-07-15T15:19:33.036Z,101723.06
2017-07-15T15:22:05.281Z,101724.39
2017-07-15T15:24:37.749Z,101723.50
2017-07-15T15:27:09.901Z,101718.95
2017-07-15T15:29:42.206Z,101718.70
2017-07-15T15:32:14.535Z,101723.14
2017-07-15T15:34:46.927Z,101718.78
2017-07-15T15:37:19.227Z,101713.50
2017-07-15T15:39:51.493Z,101718.04
2017-07-15T15:42:23.581Z,101723.68
2017-07-15T15:44:55.879Z,101726.35
2017-07-15T15:47:28.187Z,101722.03
2017-07-15T15:50:00.646Z,101718.78
2017-07-15T15:52:32.936Z,101726.09
2017-07-15T15:55:05.199Z,101739.02
2017-07-15T15:57:37.448Z,101732.25
2017-07-15T16:00:09.819Z,101729.33
2017-07-15T16:02:42.095Z,101730.33
2017-07-15T16:05:14.414Z,101734.64
2017-07-15T16:07:46.952Z,101731.63
2017-07-15T16:10:19.253Z,101731.27
2017-07-15T16:12:51.697Z,101734.39
2017-07-15T16:15:23.872Z,101726.88
2017-07-15T16:17:56.204Z,101730.62
2017-07-15T16:20:28.694Z,101726.59
2017-07-15T16:23:01.048Z,101723.19
2017-07-15T16:25:33.379Z,101723.87
2017-07-15T16:28:05.653Z,101718.89
2017-07-15T16:30:38.349Z,101713.46
2017-07-15T16:33:10.680Z,101717.53
2017-07-15T16:35:43.123Z,101714.44
2017-07-15T16:38:15.575Z,101727.33
2017-07-15T16:40:48.083Z,101728.78
2017-07-15T16:43:20.170Z,101731.97
2017-07-15T16:45:52.403Z,101733.27
2017-07-15T16:48:24.659Z,101733.27
2017-07-15T16:50:57.061Z,101736.12
2017-07-15T16:53:29.381Z,101735.77
2017-07-15T16:56:01.771Z,101741.52
2017-07-15T16:58:34.029Z,101741.18
2017-07-15T17:01:06.209Z,101745.39
2017-07-15T17:03:38.453Z,101745.56
2017-07-15T17:06:10.790Z,101745.14
2017-07-15T17:08:42.963Z,101740.24
2017-07-15T17:11:15.424Z,101741.61
2017-07-15T17:13:47.660Z,101744.12
2017-07-15T17:16:20.108Z,101744.89
2017-07-15T17:18:52.467Z,101754.35
2017-07-15T17:21:25.156Z,101758.97
2017-07-15T17:23:57.475Z,101752.27
2017-07-15T17:26:30.464Z,101752.37
2017-07-15T17:29:02.248Z,101755.13
2017-07-15T17:31:34.636Z,101756.39
2017-07-15T17:34:06.960Z,101754.92
2017-07-15T17:36:39.307Z,101755.12
2017-07-15T17:39:11.804Z,101755.20
2017-07-15T17:41:44.434Z,101752.61
2017-07-15T17:44:16.827Z,101749.28
2017-07-15T17:46:49.115Z,101750.73
2017-07-15T17:49:22.099Z,101754.77
2017-07-15T17:51:53.949Z,101752.75
2017-07-15T17:54:26.619Z,101753.75
2017-07-15T17:56:58.708Z,101759.98
2017-07-15T17:59:31.182Z,101756.32
2017-07-15T18:02:03.438Z,101756.06
2017-07-15T18:04:35.870Z,101761.30
2017-07-15T18:07:08.257Z,101752.53
2017-07-15T18:09:40.322Z,101749.05
2017-07-15T18:12:12.507Z,101756.61
2017-07-15T18:14:44.828Z,101756.44
2017-07-15T18:17:17.164Z,101754.89
2017-07-15T18:19:49.530Z,101754.83
2017-07-15T18:22:21.803Z,101748.23
2017-07-15T18:24:54.126Z,101755.75
2017-07-15T18:27:26.443Z,101760.41
2017-07-15T18:29:58.829Z,101759.62
2017-07-15T18:32:30.972Z,101757.41
2017-07-15T18:35:03.197Z,101760.20
2017-07-15T18:37:35.443Z,101754.70
2017-07-15T18:40:07.812Z,101759.31
2017-07-15T18:42:40.047Z,101764.77
2017-07-15T18:45:12.447Z,101755.39
2017-07-15T18:47:44.719Z,101761.09
2017-07-15T18:50:17.026Z,101760.88
2017-07-15T18:52:49.471Z,101763.38
2017-07-15T18:55:21.669Z,101754.57
2017-07-15T18:57:54.039Z,101761.89
2017-07-15T19:00:26.315Z,101764.44
2017-07-15T19:02:58.701Z,101763.67
2017-07-15T19:05:31.074Z,101775.09
2017-07-15T19:08:03.284Z,101772.83
2017-07-15T19:10:35.647Z,101773.11
2017-07-15T19:13:07.862Z,101769.20
2017-07-15T19:15:40.227Z,101770.00
2017-07-15T19:18:12.554Z,101772.05
2017-07-15T19:20:45.025Z,101770.22
2017-07-15T19:23:17.304Z,101775.39
2017-07-15T19:25:49.873Z,101773.30
2017-07-15T19:28:22.115Z,101773.92
2017-07-15T19:30:54.463Z,101772.05
2017-07-15T19:33:26.765Z,101781.59
2017-07-15T19:35:59.203Z,101790.33
2017-07-15T19:38:31.503Z,101795.70
2017-07-15T19:41:04.118Z,101800.84
2017-07-15T19:43:36.370Z,101792.45
2017-07-15T19:46:09.637Z,101797.09
2017-07-15T19:48:41.972Z,101797.69
2017-07-15T19:51:14.451Z,101795.91
2017-07-15T19:53:46.733Z,101802.97
2017-07-15T19:56:20.285Z,101801.78
2017-07-15T19:58:52.760Z,101810.03
2017-07-15T20:01:24.759Z,101809.41
2017-07-15T20:03:57.129Z,101811.00
2017-07-15T20:06:29.598Z,101815.09
2017-07-15T20:09:02.031Z,101814.85
2017-07-15T20:11:34.559Z,101810.10
2017-07-15T20:14:07.002Z,101816.98
2017-07-15T20:16:39.329Z,101820.25
2017-07-15T20:19:11.656Z,101819.27
2017-07-15T20:21:44.121Z,101816.70
2017-07-15T20:24:25.717Z,101823.42
2017-07-15T20:26:58.795Z,101819.53
2017-07-15T20:29:31.032Z,101815.34
2017-07-15T20:32:03.404Z,101813.06
2017-07-15T20:34:35.789Z,101817.92
2017-07-15T20:37:13.736Z,101819.48
2017-07-15T20:39:45.495Z,101815.66
2017-07-15T20:42:17.766Z,101815.69
2017-07-15T20:44:50.025Z,101809.58
2017-07-15T20:47:22.286Z,101812.16
2017-07-15T20:49:54.730Z,101809.98
2017-07-15T20:52:33.181Z,101802.99
2017-07-15T20:55:05.435Z,101805.05
2017-07-15T20:57:37.917Z,101800.12
2017-07-15T21:00:10.241Z,101800.48
2017-07-15T21:02:42.666Z,101808.55
2017-07-15T21:05:15.209Z,101801.52
2017-07-15T21:07:47.485Z,101807.36
2017-07-15T21:10:19.884Z,101810.92
2017-07-15T21:12:52.293Z,101810.56
2017-07-15T21:15:24.612Z,101813.65
2017-07-15T21:17:57.149Z,101818.98
2017-07-15T21:20:29.652Z,101815.92
2017-07-15T21:23:01.772Z,101817.76
2017-07-15T21:25:34.121Z,101819.99
2017-07-15T21:28:06.512Z,101821.98
2017-07-15T21:30:38.896Z,101824.70
2017-07-15T21:33:11.342Z,101820.25
2017-07-15T21:35:43.631Z,101823.58
2017-07-15T21:38:16.973Z,101817.68
2017-07-15T21:40:49.385Z,101817.98
2017-07-15T21:43:23.061Z,101819.11
2017-07-15T21:45:55.194Z,101821.63
2017-07-15T21:48:27.769Z,101816.77
2017-07-15T21:51:00.101Z,101825.85
2017-07-15T21:53:32.857Z,101817.25
2017-07-15T21:56:05.029Z,101819.13
2017-07-15T21:58:37.265Z,101819.74
2017-07-15T22:01:09.575Z,101820.88
2017-07-15T22:03:42.009Z,101822.99
2017-07-15T22:06:13.889Z,101816.67
2017-07-15T22:11:25.763Z,101822.63
2017-07-15T22:13:58.129Z,101818.75
2017-07-15T22:16:30.566Z,101823.06
2017-07-15T22:19:03.011Z,101818.33
2017-07-15T22:21:35.370Z,101824.28
2017-07-15T22:24:07.717Z,101827.70
2017-07-15T22:26:40.245Z,101826.35
2017-07-15T22:29:12.493Z,101824.14
2017-07-15T22:31:44.857Z,101824.83
2017-07-15T22:34:17.182Z,101815.84
2017-07-15T22:36:49.573Z,101815.61
2017-07-15T22:39:21.980Z,101821.42
2017-07-15T22:41:54.321Z,101820.20
2017-07-15T22:44:26.837Z,101820.45
2017-07-15T22:46:59.221Z,101820.08
2017-07-15T22:49:31.550Z,101826.51
2017-07-15T22:52:03.958Z,101817.20
2017-07-15T22:54:36.220Z,101813.05
2017-07-15T22:57:08.549Z,101803.53
2017-07-15T22:59:40.974Z,101811.41
2017-07-15T23:02:13.417Z,101805.50
2017-07-15T23:04:45.803Z,101808.70
2017-07-15T23:07:18.077Z,101808.39
2017-07-15T23:09:50.637Z,101803.84
2017-07-15T23:12:23.024Z,101809.29
2017-07-15T23:14:55.485Z,101807.27
2017-07-15T23:17:27.870Z,101803.27
2017-07-15T23:20:00.316Z,101799.87
2017-07-15T23:22:32.711Z,101802.52
2017-07-15T23:25:05.202Z,101804.41
2017-07-15T23:27:37.887Z,101801.08
2017-07-15T23:30:09.735Z,101810.66
2017-07-15T23:32:42.102Z,101803.72
2017-07-15T23:35:14.544Z,101800.68
2017-07-15T23:37:46.938Z,101797.45
2017-07-15T23:40:19.244Z,101790.42
2017-07-15T23:42:51.651Z,101791.39
2017-07-15T23:45:24.296Z,101790.44
2017-07-15T23:47:56.641Z,101790.80
2017-07-15T23:50:29.193Z,101783.02
2017-07-15T23:53:01.544Z,101787.17
2017-07-15T23:55:33.936Z,101782.10
2017-07-15T23:58:06.285Z,101775.22
